sensor_id;sensor_type;location;lat;lon;timestamp;temperature;humidity
37782;DHT22;23621;50.878;4.584;2023-03-02T00:00:23;7.50;53.10
37782;DHT22;23621;50.878;4.584;2023-03-02T00:02:51;7.40;53.10
37782;DHT22;23621;50.878;4.584;2023-03-02T00:05:37;7.40;53.00
37782;DHT22;23621;50.878;4.584;2023-03-02T00:08:07;7.30;53.10
37782;DHT22;23621;50.878;4.584;2023-03-02T00:10:36;7.30;53.20
37782;DHT22;23621;50.878;4.584;2023-03-02T00:13:04;7.30;53.20
37782;DHT22;23621;50.878;4.584;2023-03-02T00:15:31;7.30;53.20
37782;DHT22;23621;50.878;4.584;2023-03-02T00:18:04;7.20;53.10
37782;DHT22;23621;50.878;4.584;2023-03-02T00:20:31;7.20;53.10
37782;DHT22;23621;50.878;4.584;2023-03-02T00:23:00;7.20;53.20
37782;DHT22;23621;50.878;4.584;2023-03-02T00:25:27;7.20;53.20
37782;DHT22;23621;50.878;4.584;2023-03-02T00:27:54;7.10;53.20
37782;DHT22;23621;50.878;4.584;2023-03-02T00:30:24;7.10;53.20
37782;DHT22;23621;50.878;4.584;2023-03-02T00:32:51;7.10;53.30
37782;DHT22;23621;50.878;4.584;2023-03-02T00:35:19;7.10;53.40
37782;DHT22;23621;50.878;4.584;2023-03-02T00:37:46;7.10;53.40
37782;DHT22;23621;50.878;4.584;2023-03-02T00:40:14;7.10;53.40
37782;DHT22;23621;50.878;4.584;2023-03-02T00:42:41;7.10;53.50
37782;DHT22;23621;50.878;4.584;2023-03-02T00:45:08;7.00;53.40
37782;DHT22;23621;50.878;4.584;2023-03-02T00:47:36;7.00;53.50
37782;DHT22;23621;50.878;4.584;2023-03-02T00:50:22;7.00;53.50
37782;DHT22;23621;50.878;4.584;2023-03-02T00:52:49;7.00;53.60
37782;DHT22;23621;50.878;4.584;2023-03-02T00:55:16;7.00;53.60
37782;DHT22;23621;50.878;4.584;2023-03-02T00:57:43;6.90;53.50
37782;DHT22;23621;50.878;4.584;2023-03-02T01:00:10;6.90;53.50
37782;DHT22;23621;50.878;4.584;2023-03-02T01:02:37;6.90;53.60
37782;DHT22;23621;50.878;4.584;2023-03-02T01:05:13;6.90;53.60
37782;DHT22;23621;50.878;4.584;2023-03-02T01:07:46;6.90;53.60
37782;DHT22;23621;50.878;4.584;2023-03-02T01:10:16;6.80;53.60
37782;DHT22;23621;50.878;4.584;2023-03-02T01:13:02;6.80;53.70
37782;DHT22;23621;50.878;4.584;2023-03-02T01:15:29;6.80;53.70
37782;DHT22;23621;50.878;4.584;2023-03-02T01:17:56;6.80;53.60
37782;DHT22;23621;50.878;4.584;2023-03-02T01:20:24;6.80;53.80
37782;DHT22;23621;50.878;4.584;2023-03-02T01:22:51;6.70;53.50
37782;DHT22;23621;50.878;4.584;2023-03-02T01:25:18;6.70;53.70
37782;DHT22;23621;50.878;4.584;2023-03-02T01:27:48;6.70;53.70
37782;DHT22;23621;50.878;4.584;2023-03-02T01:30:15;6.70;53.70
37782;DHT22;23621;50.878;4.584;2023-03-02T01:33:01;6.70;53.90
37782;DHT22;23621;50.878;4.584;2023-03-02T01:35:28;6.70;53.90
37782;DHT22;23621;50.878;4.584;2023-03-02T01:38:01;6.60;53.70
37782;DHT22;23621;50.878;4.584;2023-03-02T01:40:28;6.60;53.70
37782;DHT22;23621;50.878;4.584;2023-03-02T01:42:57;6.60;53.80
37782;DHT22;23621;50.878;4.584;2023-03-02T01:48:13;6.60;53.90
37782;DHT22;23621;50.878;4.584;2023-03-02T01:50:44;6.60;54.00
37782;DHT22;23621;50.878;4.584;2023-03-02T01:53:15;6.60;54.00
37782;DHT22;23621;50.878;4.584;2023-03-02T01:55:43;6.50;54.10
37782;DHT22;23621;50.878;4.584;2023-03-02T01:58:12;6.50;54.10
37782;DHT22;23621;50.878;4.584;2023-03-02T02:00:41;6.50;54.10
37782;DHT22;23621;50.878;4.584;2023-03-02T02:03:22;6.50;54.90
37782;DHT22;23621;50.878;4.584;2023-03-02T02:06:07;6.50;54.10
37782;DHT22;23621;50.878;4.584;2023-03-02T02:08:36;6.50;54.10
37782;DHT22;23621;50.878;4.584;2023-03-02T02:11:05;6.50;54.10
37782;DHT22;23621;50.878;4.584;2023-03-02T02:13:32;6.40;54.00
37782;DHT22;23621;50.878;4.584;2023-03-02T02:15:59;6.50;54.10
37782;DHT22;23621;50.878;4.584;2023-03-02T02:18:26;6.40;53.90
37782;DHT22;23621;50.878;4.584;2023-03-02T02:20:54;6.40;54.00
37782;DHT22;23621;50.878;4.584;2023-03-02T02:23:35;6.40;54.10
37782;DHT22;23621;50.878;4.584;2023-03-02T02:26:15;6.40;54.20
37782;DHT22;23621;50.878;4.584;2023-03-02T02:28:57;6.40;54.20
37782;DHT22;23621;50.878;4.584;2023-03-02T02:31:46;6.40;54.30
37782;DHT22;23621;50.878;4.584;2023-03-02T02:35:04;6.30;54.20
37782;DHT22;23621;50.878;4.584;2023-03-02T02:37:15;6.30;54.20
37782;DHT22;23621;50.878;4.584;2023-03-02T02:40:06;6.30;54.20
37782;DHT22;23621;50.878;4.584;2023-03-02T02:42:42;6.20;54.20
37782;DHT22;23621;50.878;4.584;2023-03-02T02:45:23;6.20;54.30
37782;DHT22;23621;50.878;4.584;2023-03-02T02:47:50;6.20;54.30
37782;DHT22;23621;50.878;4.584;2023-03-02T02:50:24;6.20;54.20
37782;DHT22;23621;50.878;4.584;2023-03-02T02:53:18;6.20;54.20
37782;DHT22;23621;50.878;4.584;2023-03-02T02:55:48;6.20;54.20
37782;DHT22;23621;50.878;4.584;2023-03-02T02:58:46;6.20;54.10
37782;DHT22;23621;50.878;4.584;2023-03-02T03:01:16;6.20;54.20
37782;DHT22;23621;50.878;4.584;2023-03-02T03:03:50;6.10;54.20
37782;DHT22;23621;50.878;4.584;2023-03-02T03:06:36;6.10;54.30
37782;DHT22;23621;50.878;4.584;2023-03-02T03:09:11;6.10;54.30
37782;DHT22;23621;50.878;4.584;2023-03-02T03:11:41;6.10;54.20
37782;DHT22;23621;50.878;4.584;2023-03-02T03:14:12;6.10;54.30
37782;DHT22;23621;50.878;4.584;2023-03-02T03:16:41;6.10;54.40
37782;DHT22;23621;50.878;4.584;2023-03-02T03:19:22;6.10;54.40
37782;DHT22;23621;50.878;4.584;2023-03-02T03:21:52;6.10;54.50
37782;DHT22;23621;50.878;4.584;2023-03-02T03:24:20;6.00;54.30
37782;DHT22;23621;50.878;4.584;2023-03-02T03:26:47;6.00;54.30
37782;DHT22;23621;50.878;4.584;2023-03-02T03:29:16;6.00;54.20
37782;DHT22;23621;50.878;4.584;2023-03-02T03:32:03;6.00;54.30
37782;DHT22;23621;50.878;4.584;2023-03-02T03:34:31;6.00;54.30
37782;DHT22;23621;50.878;4.584;2023-03-02T03:36:58;6.00;54.50
37782;DHT22;23621;50.878;4.584;2023-03-02T03:39:30;6.00;54.40
37782;DHT22;23621;50.878;4.584;2023-03-02T03:41:57;6.00;54.30
37782;DHT22;23621;50.878;4.584;2023-03-02T03:44:24;5.90;54.20
37782;DHT22;23621;50.878;4.584;2023-03-02T03:46:52;5.90;54.20
37782;DHT22;23621;50.878;4.584;2023-03-02T03:49:19;5.90;54.30
37782;DHT22;23621;50.878;4.584;2023-03-02T03:51:46;5.90;54.30
37782;DHT22;23621;50.878;4.584;2023-03-02T03:54:13;5.90;54.30
37782;DHT22;23621;50.878;4.584;2023-03-02T03:56:43;5.90;54.30
37782;DHT22;23621;50.878;4.584;2023-03-02T03:59:14;5.90;54.40
37782;DHT22;23621;50.878;4.584;2023-03-02T04:01:48;5.90;54.40
37782;DHT22;23621;50.878;4.584;2023-03-02T04:04:19;5.90;54.50
37782;DHT22;23621;50.878;4.584;2023-03-02T04:06:46;5.90;54.50
37782;DHT22;23621;50.878;4.584;2023-03-02T04:09:16;5.90;54.40
37782;DHT22;23621;50.878;4.584;2023-03-02T04:11:48;5.80;54.50
37782;DHT22;23621;50.878;4.584;2023-03-02T04:14:16;5.90;54.50
37782;DHT22;23621;50.878;4.584;2023-03-02T04:16:43;5.80;54.40
37782;DHT22;23621;50.878;4.584;2023-03-02T04:19:11;5.80;54.30
37782;DHT22;23621;50.878;4.584;2023-03-02T04:21:44;5.80;54.20
37782;DHT22;23621;50.878;4.584;2023-03-02T04:24:13;5.80;54.50
37782;DHT22;23621;50.878;4.584;2023-03-02T04:26:41;5.70;54.40
37782;DHT22;23621;50.878;4.584;2023-03-02T04:29:09;5.70;54.40
37782;DHT22;23621;50.878;4.584;2023-03-02T04:31:36;5.70;54.40
37782;DHT22;23621;50.878;4.584;2023-03-02T04:34:04;5.70;54.40
37782;DHT22;23621;50.878;4.584;2023-03-02T04:36:34;5.70;54.50
37782;DHT22;23621;50.878;4.584;2023-03-02T04:39:04;5.70;54.60
37782;DHT22;23621;50.878;4.584;2023-03-02T04:41:31;5.70;54.60
37782;DHT22;23621;50.878;4.584;2023-03-02T04:43:58;5.70;54.60
37782;DHT22;23621;50.878;4.584;2023-03-02T04:46:26;5.70;54.60
37782;DHT22;23621;50.878;4.584;2023-03-02T04:48:54;5.60;54.70
37782;DHT22;23621;50.878;4.584;2023-03-02T04:51:27;5.60;54.60
37782;DHT22;23621;50.878;4.584;2023-03-02T04:53:57;5.60;54.80
37782;DHT22;23621;50.878;4.584;2023-03-02T04:56:25;5.60;54.70
37782;DHT22;23621;50.878;4.584;2023-03-02T04:58:52;5.60;54.70
37782;DHT22;23621;50.878;4.584;2023-03-02T05:01:22;5.70;54.80
37782;DHT22;23621;50.878;4.584;2023-03-02T05:03:50;5.60;54.70
37782;DHT22;23621;50.878;4.584;2023-03-02T05:06:18;5.70;54.70
37782;DHT22;23621;50.878;4.584;2023-03-02T05:08:45;5.70;54.60
37782;DHT22;23621;50.878;4.584;2023-03-02T05:11:13;5.70;54.50
37782;DHT22;23621;50.878;4.584;2023-03-02T05:13:49;5.70;54.60
37782;DHT22;23621;50.878;4.584;2023-03-02T05:16:17;5.60;55.20
37782;DHT22;23621;50.878;4.584;2023-03-02T05:18:45;5.60;54.50
37782;DHT22;23621;50.878;4.584;2023-03-02T05:21:13;5.60;54.60
37782;DHT22;23621;50.878;4.584;2023-03-02T05:23:59;5.60;54.70
37782;DHT22;23621;50.878;4.584;2023-03-02T05:26:26;5.50;54.60
37782;DHT22;23621;50.878;4.584;2023-03-02T05:28:54;5.50;54.60
37782;DHT22;23621;50.878;4.584;2023-03-02T05:31:31;5.50;54.60
37782;DHT22;23621;50.878;4.584;2023-03-02T05:34:01;5.60;54.80
37782;DHT22;23621;50.878;4.584;2023-03-02T05:36:29;5.50;54.70
37782;DHT22;23621;50.878;4.584;2023-03-02T05:38:56;5.50;54.70
37782;DHT22;23621;50.878;4.584;2023-03-02T05:41:24;5.50;54.70
37782;DHT22;23621;50.878;4.584;2023-03-02T05:43:51;5.50;54.70
37782;DHT22;23621;50.878;4.584;2023-03-02T05:46:18;5.50;54.70
37782;DHT22;23621;50.878;4.584;2023-03-02T05:48:53;5.50;54.80
37782;DHT22;23621;50.878;4.584;2023-03-02T05:51:20;5.50;54.70
37782;DHT22;23621;50.878;4.584;2023-03-02T05:53:50;5.50;54.70
37782;DHT22;23621;50.878;4.584;2023-03-02T05:56:17;5.40;54.70
37782;DHT22;23621;50.878;4.584;2023-03-02T05:58:49;5.40;54.80
37782;DHT22;23621;50.878;4.584;2023-03-02T06:01:16;5.50;54.90
37782;DHT22;23621;50.878;4.584;2023-03-02T06:03:43;5.40;54.70
37782;DHT22;23621;50.878;4.584;2023-03-02T06:06:10;5.40;54.80
37782;DHT22;23621;50.878;4.584;2023-03-02T06:08:59;5.40;54.90
37782;DHT22;23621;50.878;4.584;2023-03-02T06:11:26;5.40;54.80
37782;DHT22;23621;50.878;4.584;2023-03-02T06:13:53;5.40;54.80
37782;DHT22;23621;50.878;4.584;2023-03-02T06:16:20;5.40;54.90
37782;DHT22;23621;50.878;4.584;2023-03-02T06:18:55;5.40;54.90
37782;DHT22;23621;50.878;4.584;2023-03-02T06:21:23;5.40;54.90
37782;DHT22;23621;50.878;4.584;2023-03-02T06:23:49;5.40;54.90
37782;DHT22;23621;50.878;4.584;2023-03-02T06:26:16;5.40;55.00
37782;DHT22;23621;50.878;4.584;2023-03-02T06:28:43;5.40;55.00
37782;DHT22;23621;50.878;4.584;2023-03-02T06:31:20;5.40;55.70
37782;DHT22;23621;50.878;4.584;2023-03-02T06:33:47;5.40;55.20
37782;DHT22;23621;50.878;4.584;2023-03-02T06:36:14;5.40;55.10
37782;DHT22;23621;50.878;4.584;2023-03-02T06:38:42;5.40;55.20
37782;DHT22;23621;50.878;4.584;2023-03-02T06:41:12;5.40;55.20
37782;DHT22;23621;50.878;4.584;2023-03-02T06:43:59;5.40;55.10
37782;DHT22;23621;50.878;4.584;2023-03-02T06:46:26;5.40;55.20
37782;DHT22;23621;50.878;4.584;2023-03-02T06:48:53;5.40;55.10
37782;DHT22;23621;50.878;4.584;2023-03-02T06:51:38;5.40;55.10
37782;DHT22;23621;50.878;4.584;2023-03-02T06:54:05;5.40;55.20
37782;DHT22;23621;50.878;4.584;2023-03-02T06:56:42;5.30;55.20
37782;DHT22;23621;50.878;4.584;2023-03-02T06:59:09;5.30;55.30
37782;DHT22;23621;50.878;4.584;2023-03-02T07:01:55;5.40;55.40
37782;DHT22;23621;50.878;4.584;2023-03-02T07:04:22;5.40;55.50
37782;DHT22;23621;50.878;4.584;2023-03-02T07:06:49;5.40;55.50
37782;DHT22;23621;50.878;4.584;2023-03-02T07:09:16;5.40;55.60
37782;DHT22;23621;50.878;4.584;2023-03-02T07:11:43;5.40;55.60
37782;DHT22;23621;50.878;4.584;2023-03-02T07:14:10;5.50;55.70
37782;DHT22;23621;50.878;4.584;2023-03-02T07:16:38;5.50;55.80
37782;DHT22;23621;50.878;4.584;2023-03-02T07:19:24;5.50;55.90
37782;DHT22;23621;50.878;4.584;2023-03-02T07:21:51;5.60;56.00
37782;DHT22;23621;50.878;4.584;2023-03-02T07:24:18;5.60;56.00
37782;DHT22;23621;50.878;4.584;2023-03-02T07:26:45;5.70;55.90
37782;DHT22;23621;50.878;4.584;2023-03-02T07:29:12;5.70;55.90
37782;DHT22;23621;50.878;4.584;2023-03-02T07:31:39;5.80;56.10
37782;DHT22;23621;50.878;4.584;2023-03-02T07:34:11;5.70;56.00
37782;DHT22;23621;50.878;4.584;2023-03-02T07:36:39;5.80;56.20
37782;DHT22;23621;50.878;4.584;2023-03-02T07:39:06;5.90;56.30
37782;DHT22;23621;50.878;4.584;2023-03-02T07:41:33;5.90;56.30
37782;DHT22;23621;50.878;4.584;2023-03-02T07:44:00;6.00;56.30
37782;DHT22;23621;50.878;4.584;2023-03-02T07:46:27;6.00;56.50
37782;DHT22;23621;50.878;4.584;2023-03-02T07:48:54;6.10;56.60
37782;DHT22;23621;50.878;4.584;2023-03-02T07:51:21;6.10;56.60
37782;DHT22;23621;50.878;4.584;2023-03-02T07:53:48;6.20;56.70
37782;DHT22;23621;50.878;4.584;2023-03-02T07:56:17;6.30;56.70
37782;DHT22;23621;50.878;4.584;2023-03-02T07:58:46;6.30;56.80
37782;DHT22;23621;50.878;4.584;2023-03-02T08:01:13;6.30;56.70
37782;DHT22;23621;50.878;4.584;2023-03-02T08:03:42;6.30;56.70
37782;DHT22;23621;50.878;4.584;2023-03-02T08:06:24;6.40;56.80
37782;DHT22;23621;50.878;4.584;2023-03-02T08:08:52;6.50;56.80
37782;DHT22;23621;50.878;4.584;2023-03-02T08:11:19;6.50;56.70
37782;DHT22;23621;50.878;4.584;2023-03-02T08:13:59;6.60;56.70
37782;DHT22;23621;50.878;4.584;2023-03-02T08:16:27;6.70;56.90
37782;DHT22;23621;50.878;4.584;2023-03-02T08:19:07;6.70;56.90
37782;DHT22;23621;50.878;4.584;2023-03-02T08:21:34;6.70;56.70
37782;DHT22;23621;50.878;4.584;2023-03-02T08:24:08;6.70;56.70
37782;DHT22;23621;50.878;4.584;2023-03-02T08:26:36;6.80;56.80
37782;DHT22;23621;50.878;4.584;2023-03-02T08:29:12;6.80;56.70
37782;DHT22;23621;50.878;4.584;2023-03-02T08:31:39;6.90;56.80
37782;DHT22;23621;50.878;4.584;2023-03-02T08:34:25;6.90;56.70
37782;DHT22;23621;50.878;4.584;2023-03-02T08:36:53;6.90;56.80
37782;DHT22;23621;50.878;4.584;2023-03-02T08:39:20;7.00;56.80
37782;DHT22;23621;50.878;4.584;2023-03-02T08:42:08;7.00;56.90
37782;DHT22;23621;50.878;4.584;2023-03-02T08:44:35;7.00;56.90
37782;DHT22;23621;50.878;4.584;2023-03-02T08:47:17;7.10;56.90
37782;DHT22;23621;50.878;4.584;2023-03-02T08:49:44;7.10;56.80
37782;DHT22;23621;50.878;4.584;2023-03-02T08:52:13;7.10;56.80
37782;DHT22;23621;50.878;4.584;2023-03-02T08:54:41;7.10;56.80
37782;DHT22;23621;50.878;4.584;2023-03-02T08:57:11;7.20;56.80
37782;DHT22;23621;50.878;4.584;2023-03-02T08:59:57;7.20;56.80
37782;DHT22;23621;50.878;4.584;2023-03-02T09:02:24;7.30;56.80
37782;DHT22;23621;50.878;4.584;2023-03-02T09:04:51;7.30;56.70
37782;DHT22;23621;50.878;4.584;2023-03-02T09:07:18;7.30;56.60
37782;DHT22;23621;50.878;4.584;2023-03-02T09:09:46;7.40;56.70
37782;DHT22;23621;50.878;4.584;2023-03-02T09:12:12;7.50;56.60
37782;DHT22;23621;50.878;4.584;2023-03-02T09:14:39;7.50;56.50
37782;DHT22;23621;50.878;4.584;2023-03-02T09:17:25;7.60;56.50
37782;DHT22;23621;50.878;4.584;2023-03-02T09:19:52;7.60;56.40
37782;DHT22;23621;50.878;4.584;2023-03-02T09:22:37;7.70;56.40
37782;DHT22;23621;50.878;4.584;2023-03-02T09:25:05;7.70;56.40
37782;DHT22;23621;50.878;4.584;2023-03-02T09:27:32;7.80;56.50
37782;DHT22;23621;50.878;4.584;2023-03-02T09:29:59;7.90;56.50
37782;DHT22;23621;50.878;4.584;2023-03-02T09:32:26;8.00;56.40
37782;DHT22;23621;50.878;4.584;2023-03-02T09:34:56;8.00;56.30
37782;DHT22;23621;50.878;4.584;2023-03-02T09:37:24;8.00;56.20
37782;DHT22;23621;50.878;4.584;2023-03-02T09:39:54;8.10;56.30
37782;DHT22;23621;50.878;4.584;2023-03-02T09:45:11;8.20;56.20
37782;DHT22;23621;50.878;4.584;2023-03-02T09:50:38;8.30;56.20
37782;DHT22;23621;50.878;4.584;2023-03-02T09:55:52;8.40;56.00
37782;DHT22;23621;50.878;4.584;2023-03-02T09:58:20;8.40;55.90
37782;DHT22;23621;50.878;4.584;2023-03-02T10:00:50;8.40;56.00
37782;DHT22;23621;50.878;4.584;2023-03-02T10:03:49;8.50;55.90
37782;DHT22;23621;50.878;4.584;2023-03-02T10:06:18;8.50;55.90
37782;DHT22;23621;50.878;4.584;2023-03-02T10:08:45;8.50;55.60
37782;DHT22;23621;50.878;4.584;2023-03-02T10:14:19;8.60;55.80
37782;DHT22;23621;50.878;4.584;2023-03-02T10:17:30;8.60;55.80
37782;DHT22;23621;50.878;4.584;2023-03-02T10:20:04;8.70;55.90
37782;DHT22;23621;50.878;4.584;2023-03-02T10:22:37;8.70;56.00
37782;DHT22;23621;50.878;4.584;2023-03-02T10:25:28;8.80;56.10
37782;DHT22;23621;50.878;4.584;2023-03-02T10:28:04;8.90;56.00
37782;DHT22;23621;50.878;4.584;2023-03-02T10:30:37;8.90;56.00
37782;DHT22;23621;50.878;4.584;2023-03-02T10:33:17;8.90;55.90
37782;DHT22;23621;50.878;4.584;2023-03-02T10:35:47;9.00;56.00
37782;DHT22;23621;50.878;4.584;2023-03-02T10:38:17;9.00;56.00
37782;DHT22;23621;50.878;4.584;2023-03-02T10:40:50;9.10;56.10
37782;DHT22;23621;50.878;4.584;2023-03-02T10:43:35;9.10;56.10
37782;DHT22;23621;50.878;4.584;2023-03-02T10:46:08;9.10;56.10
37782;DHT22;23621;50.878;4.584;2023-03-02T10:48:57;9.20;56.10
37782;DHT22;23621;50.878;4.584;2023-03-02T10:51:32;9.20;56.20
37782;DHT22;23621;50.878;4.584;2023-03-02T10:54:19;9.30;56.10
37782;DHT22;23621;50.878;4.584;2023-03-02T10:56:52;9.30;55.70
37782;DHT22;23621;50.878;4.584;2023-03-02T10:59:43;9.40;55.60
37782;DHT22;23621;50.878;4.584;2023-03-02T11:02:25;9.40;55.70
37782;DHT22;23621;50.878;4.584;2023-03-02T11:07:54;9.50;55.70
37782;DHT22;23621;50.878;4.584;2023-03-02T11:10:28;9.50;55.50
37782;DHT22;23621;50.878;4.584;2023-03-02T11:12:58;9.60;55.40
37782;DHT22;23621;50.878;4.584;2023-03-02T11:15:50;9.70;55.50
37782;DHT22;23621;50.878;4.584;2023-03-02T11:21:16;9.80;55.40
37782;DHT22;23621;50.878;4.584;2023-03-02T11:26:58;9.90;55.00
37782;DHT22;23621;50.878;4.584;2023-03-02T11:32:53;10.10;54.00
37782;DHT22;23621;50.878;4.584;2023-03-02T11:38:11;10.10;53.80
37782;DHT22;23621;50.878;4.584;2023-03-02T11:40:46;10.20;53.90
37782;DHT22;23621;50.878;4.584;2023-03-02T11:43:13;10.30;53.80
37782;DHT22;23621;50.878;4.584;2023-03-02T11:46:02;10.30;53.80
37782;DHT22;23621;50.878;4.584;2023-03-02T11:48:46;10.40;53.90
37782;DHT22;23621;50.878;4.584;2023-03-02T11:54:02;10.60;53.80
37782;DHT22;23621;50.878;4.584;2023-03-02T11:56:34;10.60;53.70
37782;DHT22;23621;50.878;4.584;2023-03-02T11:59:37;10.70;53.80
37782;DHT22;23621;50.878;4.584;2023-03-02T12:01:58;10.70;53.60
37782;DHT22;23621;50.878;4.584;2023-03-02T12:20:23;10.90;53.40
37782;DHT22;23621;50.878;4.584;2023-03-02T12:23:21;11.00;53.30
37782;DHT22;23621;50.878;4.584;2023-03-02T12:26:01;11.10;53.20
37782;DHT22;23621;50.878;4.584;2023-03-02T12:28:34;11.20;53.20
37782;DHT22;23621;50.878;4.584;2023-03-02T12:31:08;11.20;53.10
37782;DHT22;23621;50.878;4.584;2023-03-02T12:33:48;11.30;53.10
37782;DHT22;23621;50.878;4.584;2023-03-02T12:38:56;11.40;52.90
37782;DHT22;23621;50.878;4.584;2023-03-02T12:41:55;11.50;53.00
37782;DHT22;23621;50.878;4.584;2023-03-02T12:44:55;11.60;52.90
37782;DHT22;23621;50.878;4.584;2023-03-02T12:47:46;11.60;52.70
37782;DHT22;23621;50.878;4.584;2023-03-02T12:50:26;11.60;52.70
37782;DHT22;23621;50.878;4.584;2023-03-02T12:53:12;11.70;52.80
37782;DHT22;23621;50.878;4.584;2023-03-02T12:55:41;11.80;52.70
37782;DHT22;23621;50.878;4.584;2023-03-02T12:58:20;11.80;52.60
37782;DHT22;23621;50.878;4.584;2023-03-02T13:00:59;11.90;52.60
37782;DHT22;23621;50.878;4.584;2023-03-02T13:03:28;12.00;52.60
37782;DHT22;23621;50.878;4.584;2023-03-02T13:06:04;12.00;53.20
37782;DHT22;23621;50.878;4.584;2023-03-02T13:08:36;12.10;52.50
37782;DHT22;23621;50.878;4.584;2023-03-02T13:11:04;12.10;52.30
37782;DHT22;23621;50.878;4.584;2023-03-02T13:16:00;12.30;52.90
37782;DHT22;23621;50.878;4.584;2023-03-02T13:18:31;12.30;52.20
37782;DHT22;23621;50.878;4.584;2023-03-02T13:20:59;12.30;52.10
37782;DHT22;23621;50.878;4.584;2023-03-02T13:23:29;12.40;52.10
37782;DHT22;23621;50.878;4.584;2023-03-02T13:26:02;12.40;52.10
37782;DHT22;23621;50.878;4.584;2023-03-02T13:28:35;12.50;52.20
37782;DHT22;23621;50.878;4.584;2023-03-02T13:31:20;12.50;52.10
37782;DHT22;23621;50.878;4.584;2023-03-02T13:33:49;12.60;52.10
37782;DHT22;23621;50.878;4.584;2023-03-02T13:36:26;12.70;52.10
37782;DHT22;23621;50.878;4.584;2023-03-02T13:38:56;12.70;51.90
37782;DHT22;23621;50.878;4.584;2023-03-02T13:41:30;12.70;51.90
37782;DHT22;23621;50.878;4.584;2023-03-02T13:43:58;12.80;52.00
37782;DHT22;23621;50.878;4.584;2023-03-02T13:46:36;12.80;51.80
37782;DHT22;23621;50.878;4.584;2023-03-02T13:49:07;12.90;51.70
37782;DHT22;23621;50.878;4.584;2023-03-02T13:51:45;12.90;51.70
37782;DHT22;23621;50.878;4.584;2023-03-02T13:54:20;12.90;51.60
37782;DHT22;23621;50.878;4.584;2023-03-02T13:56:49;13.00;51.60
37782;DHT22;23621;50.878;4.584;2023-03-02T13:59:18;12.90;51.40
37782;DHT22;23621;50.878;4.584;2023-03-02T14:01:45;13.00;51.60
37782;DHT22;23621;50.878;4.584;2023-03-02T14:04:14;13.00;51.50
37782;DHT22;23621;50.878;4.584;2023-03-02T14:06:44;13.10;51.70
37782;DHT22;23621;50.878;4.584;2023-03-02T14:09:12;13.10;51.70
37782;DHT22;23621;50.878;4.584;2023-03-02T14:11:41;13.20;51.80
37782;DHT22;23621;50.878;4.584;2023-03-02T14:14:21;13.20;51.50
37782;DHT22;23621;50.878;4.584;2023-03-02T14:16:49;13.20;51.40
37782;DHT22;23621;50.878;4.584;2023-03-02T14:19:19;13.30;51.40
37782;DHT22;23621;50.878;4.584;2023-03-02T14:21:46;13.30;51.50
37782;DHT22;23621;50.878;4.584;2023-03-02T14:24:13;13.30;51.50
37782;DHT22;23621;50.878;4.584;2023-03-02T14:26:47;13.40;51.40
37782;DHT22;23621;50.878;4.584;2023-03-02T14:29:27;13.40;51.40
37782;DHT22;23621;50.878;4.584;2023-03-02T14:31:56;13.50;51.50
37782;DHT22;23621;50.878;4.584;2023-03-02T14:34:25;13.50;51.40
37782;DHT22;23621;50.878;4.584;2023-03-02T14:36:55;13.50;51.10
37782;DHT22;23621;50.878;4.584;2023-03-02T14:39:37;13.60;51.10
37782;DHT22;23621;50.878;4.584;2023-03-02T14:42:09;13.60;51.30
37782;DHT22;23621;50.878;4.584;2023-03-02T14:44:37;13.60;51.30
37782;DHT22;23621;50.878;4.584;2023-03-02T14:47:03;13.70;51.20
37782;DHT22;23621;50.878;4.584;2023-03-02T14:49:31;13.70;51.10
37782;DHT22;23621;50.878;4.584;2023-03-02T14:54:45;13.70;50.90
37782;DHT22;23621;50.878;4.584;2023-03-02T14:57:19;13.70;51.00
37782;DHT22;23621;50.878;4.584;2023-03-02T14:59:47;13.70;50.80
37782;DHT22;23621;50.878;4.584;2023-03-02T15:02:16;13.80;51.00
37782;DHT22;23621;50.878;4.584;2023-03-02T15:04:51;13.80;50.90
37782;DHT22;23621;50.878;4.584;2023-03-02T15:07:22;13.80;51.00
37782;DHT22;23621;50.878;4.584;2023-03-02T15:09:49;13.90;51.10
37782;DHT22;23621;50.878;4.584;2023-03-02T15:12:16;13.90;51.00
37782;DHT22;23621;50.878;4.584;2023-03-02T15:14:43;13.90;50.90
37782;DHT22;23621;50.878;4.584;2023-03-02T15:17:10;13.90;50.90
37782;DHT22;23621;50.878;4.584;2023-03-02T15:19:37;13.90;50.80
37782;DHT22;23621;50.878;4.584;2023-03-02T15:22:04;13.90;50.70
37782;DHT22;23621;50.878;4.584;2023-03-02T15:24:31;14.00;50.70
37782;DHT22;23621;50.878;4.584;2023-03-02T15:26:59;14.00;50.60
37782;DHT22;23621;50.878;4.584;2023-03-02T15:29:26;14.00;50.60
37782;DHT22;23621;50.878;4.584;2023-03-02T15:31:53;14.00;50.40
37782;DHT22;23621;50.878;4.584;2023-03-02T15:34:20;14.00;50.40
37782;DHT22;23621;50.878;4.584;2023-03-02T15:36:47;14.00;50.40
37782;DHT22;23621;50.878;4.584;2023-03-02T15:39:14;14.10;50.50
37782;DHT22;23621;50.878;4.584;2023-03-02T15:41:42;14.00;50.30
37782;DHT22;23621;50.878;4.584;2023-03-02T15:44:17;14.10;50.40
37782;DHT22;23621;50.878;4.584;2023-03-02T15:46:49;14.10;50.30
37782;DHT22;23621;50.878;4.584;2023-03-02T15:49:17;14.10;50.50
37782;DHT22;23621;50.878;4.584;2023-03-02T15:51:50;14.10;50.50
37782;DHT22;23621;50.878;4.584;2023-03-02T15:54:18;14.10;50.40
37782;DHT22;23621;50.878;4.584;2023-03-02T15:56:45;14.10;50.20
37782;DHT22;23621;50.878;4.584;2023-03-02T15:59:27;14.10;50.30
37782;DHT22;23621;50.878;4.584;2023-03-02T16:01:55;14.10;50.40
37782;DHT22;23621;50.878;4.584;2023-03-02T16:04:29;14.20;50.50
37782;DHT22;23621;50.878;4.584;2023-03-02T16:06:56;14.20;50.50
37782;DHT22;23621;50.878;4.584;2023-03-02T16:09:24;14.10;50.40
37782;DHT22;23621;50.878;4.584;2023-03-02T16:11:51;14.10;50.50
37782;DHT22;23621;50.878;4.584;2023-03-02T16:14:19;14.10;50.50
37782;DHT22;23621;50.878;4.584;2023-03-02T16:16:46;14.10;50.50
37782;DHT22;23621;50.878;4.584;2023-03-02T16:19:15;14.10;50.50
37782;DHT22;23621;50.878;4.584;2023-03-02T16:21:45;14.10;50.60
37782;DHT22;23621;50.878;4.584;2023-03-02T16:24:13;14.10;50.50
37782;DHT22;23621;50.878;4.584;2023-03-02T16:26:42;14.10;50.50
37782;DHT22;23621;50.878;4.584;2023-03-02T16:29:10;14.10;50.50
37782;DHT22;23621;50.878;4.584;2023-03-02T16:31:38;14.00;50.40
37782;DHT22;23621;50.878;4.584;2023-03-02T16:34:08;14.10;50.50
37782;DHT22;23621;50.878;4.584;2023-03-02T16:36:37;14.10;50.50
37782;DHT22;23621;50.878;4.584;2023-03-02T16:39:06;14.00;50.50
37782;DHT22;23621;50.878;4.584;2023-03-02T16:41:34;14.10;50.60
37782;DHT22;23621;50.878;4.584;2023-03-02T16:44:19;14.10;50.70
37782;DHT22;23621;50.878;4.584;2023-03-02T16:46:47;14.00;50.60
37782;DHT22;23621;50.878;4.584;2023-03-02T16:49:32;14.00;50.70
37782;DHT22;23621;50.878;4.584;2023-03-02T16:51:59;14.00;50.70
37782;DHT22;23621;50.878;4.584;2023-03-02T16:54:26;13.90;50.60
37782;DHT22;23621;50.878;4.584;2023-03-02T16:57:12;13.90;50.60
37782;DHT22;23621;50.878;4.584;2023-03-02T16:59:38;13.90;50.60
37782;DHT22;23621;50.878;4.584;2023-03-02T17:02:08;13.90;50.50
37782;DHT22;23621;50.878;4.584;2023-03-02T17:04:35;13.80;50.50
37782;DHT22;23621;50.878;4.584;2023-03-02T17:07:04;13.80;50.50